createdAt,value
2022-08-06T00:00:07.854Z,62.67
2022-08-06T00:03:00.207Z,62.66
2022-08-06T00:05:34.936Z,62.84
2022-08-06T00:08:06.285Z,62.78
2022-08-06T00:10:35.483Z,62.95
2022-08-06T00:13:05.417Z,62.84
2022-08-06T00:16:09.134Z,62.78
2022-08-06T00:18:24.290Z,62.63
2022-08-06T00:20:53.628Z,62.68
2022-08-06T00:23:23.609Z,62.84
2022-08-06T00:25:54.654Z,62.69
2022-08-06T00:28:30.625Z,62.77
2022-08-06T00:31:06.122Z,62.73
2022-08-06T00:33:44.388Z,62.71
2022-08-06T00:36:24.859Z,62.74
2022-08-06T00:38:53.813Z,62.75
2022-08-06T00:41:27.110Z,62.66
2022-08-06T00:43:59.910Z,62.72
2022-08-06T00:46:31.012Z,62.74
2022-08-06T00:48:59.319Z,62.84
2022-08-06T00:51:51.463Z,62.82
2022-08-06T00:54:28.934Z,62.46
2022-08-06T00:57:08.003Z,62.36
2022-08-06T00:59:40.662Z,62.55
2022-08-06T01:02:14.550Z,62.40
2022-08-06T01:04:43.388Z,62.43
2022-08-06T01:07:12.099Z,62.54
2022-08-06T01:09:46.071Z,62.22
2022-08-06T01:12:33.405Z,62.22
2022-08-06T01:15:16.255Z,62.25
2022-08-06T01:18:01.567Z,62.03
2022-08-06T01:21:56.515Z,62.11
2022-08-06T01:23:59.118Z,61.83
2022-08-06T01:26:54.408Z,62.06
2022-08-06T01:29:36.166Z,62.01
2022-08-06T01:32:09.509Z,61.93
2022-08-06T01:34:47.345Z,61.81
2022-08-06T01:37:38.890Z,61.72
2022-08-06T01:40:14.229Z,61.64
2022-08-06T01:42:45.765Z,61.77
2022-08-06T01:45:42.369Z,61.85
2022-08-06T01:48:28.888Z,61.66
2022-08-06T01:51:02.928Z,61.85
2022-08-06T01:54:05.998Z,61.80
2022-08-06T01:56:30.875Z,61.73
2022-08-06T01:59:04.452Z,61.81
2022-08-06T02:01:53.422Z,61.73
2022-08-06T02:04:28.927Z,61.84
2022-08-06T02:07:00.545Z,61.73
2022-08-06T02:09:37.835Z,61.70
2022-08-06T02:12:17.371Z,61.80
2022-08-06T02:15:04.071Z,61.80
2022-08-06T02:18:04.357Z,61.70
2022-08-06T02:20:37.014Z,61.91
2022-08-06T02:23:10.537Z,61.85
2022-08-06T02:25:41.648Z,61.91
2022-08-06T02:28:25.173Z,62.05
2022-08-06T02:30:56.704Z,61.96
2022-08-06T02:34:01.056Z,62.10
2022-08-06T02:36:27.259Z,62.08
2022-08-06T02:39:08.354Z,61.99
2022-08-06T02:41:55.964Z,62.13
2022-08-06T02:44:35.026Z,62.07
2022-08-06T02:47:17.980Z,62.07
2022-08-06T02:49:57.811Z,62.21
2022-08-06T02:52:56.470Z,62.14
2022-08-06T02:55:35.640Z,62.41
2022-08-06T02:58:19.011Z,62.37
2022-08-06T03:00:51.944Z,62.37
2022-08-06T03:03:34.529Z,62.29
2022-08-06T03:06:07.388Z,62.49
2022-08-06T03:08:38.836Z,62.46
2022-08-06T03:11:08.731Z,62.15
2022-08-06T03:13:39.058Z,62.30
2022-08-06T03:16:23.692Z,62.50
2022-08-06T03:19:53.939Z,62.38
2022-08-06T03:21:55.538Z,62.38
2022-08-06T03:24:27.785Z,62.36
2022-08-06T03:27:00.145Z,62.42
2022-08-06T03:29:30.246Z,62.19
2022-08-06T03:32:24.761Z,62.27
2022-08-06T03:34:52.141Z,62.14
2022-08-06T03:37:45.459Z,62.36
2022-08-06T03:40:12.672Z,62.22
2022-08-06T03:42:43.996Z,62.26
2022-08-06T03:45:35.436Z,62.23
2022-08-06T03:48:07.015Z,62.11
2022-08-06T03:50:43.032Z,62.09
2022-08-06T03:53:25.048Z,62.10
2022-08-06T03:55:59.542Z,62.12
2022-08-06T03:58:29.464Z,62.03
2022-08-06T04:01:04.684Z,62.12
2022-08-06T04:03:39.693Z,62.08
2022-08-06T04:06:16.097Z,62.05
2022-08-06T04:08:46.269Z,61.89
2022-08-06T04:12:14.194Z,62.07
2022-08-06T04:14:08.531Z,61.88
2022-08-06T04:16:38.164Z,62.06
2022-08-06T04:19:15.631Z,62.00
2022-08-06T04:23:05.283Z,62.04
2022-08-06T04:24:33.547Z,62.01
2022-08-06T04:27:09.427Z,61.91
2022-08-06T04:29:56.900Z,62.06
2022-08-06T04:32:32.289Z,61.96
2022-08-06T04:36:05.831Z,61.93
2022-08-06T04:37:54.295Z,62.01
2022-08-06T04:40:34.345Z,61.96
2022-08-06T04:43:08.686Z,61.89
2022-08-06T04:46:18.586Z,61.86
2022-08-06T04:48:40.062Z,61.82
2022-08-06T04:51:10.450Z,61.82
2022-08-06T04:53:58.203Z,61.65
2022-08-06T04:56:29.863Z,61.70
2022-08-06T04:59:07.652Z,61.66
2022-08-06T05:01:40.840Z,61.42
2022-08-06T05:04:26.526Z,61.53
2022-08-06T05:07:17.172Z,61.45
2022-08-06T05:09:54.279Z,61.44
2022-08-06T05:12:39.398Z,61.28
2022-08-06T05:15:10.950Z,61.28
2022-08-06T05:17:58.041Z,61.03
2022-08-06T05:20:32.111Z,61.03
2022-08-06T05:23:20.054Z,60.87
2022-08-06T05:25:53.595Z,60.93
2022-08-06T05:28:27.193Z,60.66
2022-08-06T05:30:56.640Z,60.70
2022-08-06T05:33:38.795Z,60.50
2022-08-06T05:36:19.337Z,60.41
2022-08-06T05:38:58.552Z,60.28
2022-08-06T05:41:33.227Z,60.23
2022-08-06T05:44:03.186Z,60.22
2022-08-06T05:46:38.492Z,60.01
2022-08-06T05:49:58.241Z,59.92
2022-08-06T05:52:35.956Z,59.76
2022-08-06T05:55:11.456Z,59.72
2022-08-06T05:57:53.895Z,59.59
2022-08-06T06:00:42.265Z,59.69
2022-08-06T06:03:25.116Z,59.49
2022-08-06T06:06:15.926Z,59.33
2022-08-06T06:08:58.860Z,59.29
2022-08-06T06:11:55.166Z,59.27
2022-08-06T06:14:32.282Z,59.16
2022-08-06T06:17:39.800Z,59.20
2022-08-06T06:21:03.910Z,59.14
2022-08-06T06:23:20.334Z,58.90
2022-08-06T06:26:00.959Z,59.01
2022-08-06T06:28:47.953Z,58.80
2022-08-06T06:31:58.368Z,58.94
2022-08-06T06:34:55.544Z,59.05
2022-08-06T06:37:47.656Z,58.76
2022-08-06T06:40:34.700Z,59.02
2022-08-06T06:43:17.665Z,58.67
2022-08-06T06:46:05.365Z,58.90
2022-08-06T06:48:47.983Z,58.55
2022-08-06T06:51:57.092Z,58.52
2022-08-06T06:54:37.822Z,58.53
2022-08-06T06:57:10.821Z,58.38
2022-08-06T07:00:01.516Z,58.31
2022-08-06T07:02:35.805Z,57.99
2022-08-06T07:05:07.504Z,57.90
2022-08-06T07:07:39.537Z,57.98
2022-08-06T07:10:11.609Z,57.49
2022-08-06T07:12:43.647Z,57.72
2022-08-06T07:15:18.917Z,57.91
2022-08-06T07:17:50.634Z,57.47
2022-08-06T07:20:31.366Z,57.65
2022-08-06T07:24:08.476Z,57.74
2022-08-06T07:25:55.769Z,57.48
2022-08-06T07:28:27.946Z,57.21
2022-08-06T07:31:04.478Z,57.41
2022-08-06T07:34:01.002Z,57.31
2022-08-06T07:36:37.868Z,57.54
2022-08-06T07:39:14.400Z,57.21
2022-08-06T07:42:07.707Z,57.49
2022-08-06T07:44:54.600Z,57.26
2022-08-06T07:47:46.967Z,57.08
2022-08-06T07:50:26.863Z,56.93
2022-08-06T07:52:57.138Z,57.07
2022-08-06T07:55:36.825Z,57.06
2022-08-06T07:58:09.598Z,57.01
2022-08-06T08:00:41.167Z,56.85
2022-08-06T08:03:57.020Z,56.77
2022-08-06T08:06:26.999Z,57.15
2022-08-06T08:08:59.953Z,57.23
2022-08-06T08:11:37.612Z,57.31
2022-08-06T08:14:22.128Z,57.43
2022-08-06T08:16:51.693Z,57.47
2022-08-06T08:19:23.608Z,57.57
2022-08-06T08:21:52.835Z,57.41
2022-08-06T08:24:21.221Z,57.63
2022-08-06T08:27:04.909Z,57.46
2022-08-06T08:29:39.802Z,57.54
2022-08-06T08:32:20.496Z,57.17
2022-08-06T08:34:52.851Z,57.31
2022-08-06T08:37:22.023Z,57.33
2022-08-06T08:39:50.795Z,57.36
2022-08-06T08:42:41.000Z,57.27
2022-08-06T08:45:13.378Z,57.30
2022-08-06T08:47:57.861Z,57.26
2022-08-06T08:50:30.852Z,57.11
2022-08-06T08:53:05.471Z,57.11
2022-08-06T08:57:01.973Z,56.56
2022-08-06T08:59:01.992Z,56.58
2022-08-06T09:01:53.312Z,55.93
2022-08-06T09:04:04.885Z,56.02
2022-08-06T09:06:39.633Z,55.68
2022-08-06T09:09:16.161Z,55.08
2022-08-06T09:12:03.752Z,54.82
2022-08-06T09:14:34.379Z,54.59
2022-08-06T09:17:05.471Z,54.11
2022-08-06T09:19:42.000Z,53.76
2022-08-06T09:22:11.842Z,53.79
2022-08-06T09:24:40.523Z,53.77
2022-08-06T09:27:55.006Z,53.37
2022-08-06T09:30:25.443Z,53.02
2022-08-06T09:32:57.731Z,52.91
2022-08-06T09:35:45.042Z,52.63
2022-08-06T09:38:18.105Z,52.19
2022-08-06T09:41:07.181Z,52.26
2022-08-06T09:44:02.771Z,51.92
2022-08-06T09:46:42.197Z,51.74
2022-08-06T09:49:48.082Z,51.69
2022-08-06T09:52:17.789Z,51.35
2022-08-06T09:54:52.745Z,51.18
2022-08-06T09:57:36.346Z,50.73
2022-08-06T10:00:14.664Z,50.53
2022-08-06T10:02:51.327Z,49.53
2022-08-06T10:05:21.522Z,49.60
2022-08-06T10:08:05.883Z,49.58
2022-08-06T10:10:50.358Z,49.59
2022-08-06T10:13:39.119Z,49.50
2022-08-06T10:16:28.905Z,49.27
2022-08-06T10:19:18.944Z,48.75
2022-08-06T10:21:50.835Z,48.63
2022-08-06T10:24:25.396Z,48.15
2022-08-06T10:26:55.704Z,48.27
2022-08-06T10:29:26.286Z,47.88
2022-08-06T10:31:56.905Z,47.33
2022-08-06T10:34:31.279Z,47.50
2022-08-06T10:37:47.352Z,47.21
2022-08-06T10:40:07.555Z,47.11
2022-08-06T10:42:40.961Z,46.98
2022-08-06T10:45:16.194Z,46.67
2022-08-06T10:49:01.552Z,46.49
2022-08-06T10:50:52.437Z,46.45
2022-08-06T10:54:01.451Z,46.78
2022-08-06T10:56:18.179Z,46.66
2022-08-06T10:58:54.908Z,46.25
2022-08-06T11:01:47.013Z,45.63
2022-08-06T11:04:39.330Z,45.20
2022-08-06T11:08:09.249Z,44.93
2022-08-06T11:10:40.358Z,45.02
2022-08-06T11:13:37.587Z,44.94
2022-08-06T11:16:29.884Z,44.93
2022-08-06T11:19:06.805Z,44.76
2022-08-06T11:21:58.882Z,44.20
2022-08-06T11:24:34.246Z,44.08
2022-08-06T11:27:50.290Z,43.69
2022-08-06T11:30:26.235Z,43.53
2022-08-06T11:32:55.469Z,43.82
2022-08-06T11:35:47.385Z,43.55
2022-08-06T11:38:56.669Z,42.63
2022-08-06T11:41:50.565Z,42.89
2022-08-06T11:44:34.374Z,42.71
2022-08-06T11:47:07.769Z,42.47
2022-08-06T11:49:43.866Z,41.56
2022-08-06T11:52:34.340Z,41.75
2022-08-06T11:55:12.839Z,41.63
2022-08-06T11:58:21.256Z,41.25
2022-08-06T12:01:03.958Z,40.86
2022-08-06T12:03:52.294Z,40.71
2022-08-06T12:06:25.899Z,40.56
2022-08-06T12:09:23.414Z,40.30
2022-08-06T12:12:26.549Z,40.30
2022-08-06T12:14:57.144Z,39.73
2022-08-06T12:17:44.899Z,39.54
2022-08-06T12:20:39.174Z,39.13
2022-08-06T12:23:17.603Z,39.06
2022-08-06T12:25:48.535Z,39.08
2022-08-06T12:28:21.680Z,38.80
2022-08-06T12:30:55.085Z,38.86
2022-08-06T12:33:24.840Z,38.36
2022-08-06T12:36:02.069Z,38.18
2022-08-06T12:38:32.983Z,38.23
2022-08-06T12:41:11.038Z,37.82
2022-08-06T12:43:56.844Z,38.13
2022-08-06T12:46:29.689Z,37.71
2022-08-06T12:49:01.374Z,37.36
2022-08-06T12:51:30.219Z,36.96
2022-08-06T12:54:02.216Z,36.91
2022-08-06T12:56:37.449Z,36.63
2022-08-06T12:59:16.126Z,36.61
2022-08-06T13:02:11.827Z,36.43
2022-08-06T13:04:47.794Z,36.38
2022-08-06T13:07:20.348Z,36.00
2022-08-06T13:10:34.862Z,35.96
2022-08-06T13:14:15.039Z,36.15
2022-08-06T13:16:12.054Z,36.11
2022-08-06T13:19:19.534Z,35.81
2022-08-06T13:22:00.529Z,35.75
2022-08-06T13:24:30.611Z,35.34
2022-08-06T13:26:59.935Z,35.30
2022-08-06T13:30:34.710Z,34.97
2022-08-06T13:32:32.637Z,34.87
2022-08-06T13:35:16.949Z,35.11
2022-08-06T13:37:57.089Z,34.78
2022-08-06T13:40:47.426Z,34.63
2022-08-06T13:43:39.331Z,34.46
2022-08-06T13:46:27.457Z,34.03
2022-08-06T13:49:02.040Z,34.05
2022-08-06T13:51:34.532Z,33.89
2022-08-06T13:54:16.367Z,33.70
2022-08-06T13:56:52.145Z,33.34
2022-08-06T13:59:24.501Z,33.18
2022-08-06T14:02:11.852Z,32.93
2022-08-06T14:04:40.868Z,32.39
2022-08-06T14:07:18.116Z,32.39
2022-08-06T14:10:09.381Z,32.41
2022-08-06T14:12:34.944Z,32.28
2022-08-06T14:15:03.769Z,32.37
2022-08-06T14:17:35.167Z,32.22
2022-08-06T14:20:15.036Z,32.42
2022-08-06T14:22:48.322Z,31.83
2022-08-06T14:25:18.025Z,31.80
2022-08-06T14:27:46.313Z,31.92
2022-08-06T14:30:27.224Z,31.87
2022-08-06T14:33:10.842Z,31.48
2022-08-06T14:35:51.091Z,31.09
2022-08-06T14:38:21.800Z,30.94
2022-08-06T14:41:51.077Z,30.97
2022-08-06T14:44:29.990Z,30.83
2022-08-06T14:46:59.675Z,30.48
2022-08-06T14:49:45.686Z,30.67
2022-08-06T14:52:18.900Z,30.45
2022-08-06T14:54:55.905Z,30.47
2022-08-06T14:57:56.598Z,30.35
2022-08-06T15:00:34.849Z,30.19
2022-08-06T15:03:07.469Z,30.24
2022-08-06T15:05:41.902Z,30.16
2022-08-06T15:08:25.190Z,30.16
2022-08-06T15:10:53.875Z,30.25
2022-08-06T15:13:36.736Z,30.33
2022-08-06T15:16:10.913Z,30.46
2022-08-06T15:19:30.299Z,30.26
2022-08-06T15:21:51.071Z,30.24
2022-08-06T15:24:25.303Z,29.97
2022-08-06T15:26:56.053Z,30.11
2022-08-06T15:29:34.639Z,30.01
2022-08-06T15:32:16.987Z,29.90
2022-08-06T15:34:48.853Z,30.15
2022-08-06T15:37:53.269Z,29.74
2022-08-06T15:40:10.022Z,29.98
2022-08-06T15:42:41.785Z,30.00
2022-08-06T15:45:45.488Z,29.98
2022-08-06T15:48:05.890Z,29.83
2022-08-06T15:50:43.078Z,30.04
2022-08-06T15:53:23.407Z,29.88
2022-08-06T15:55:53.261Z,30.28
2022-08-06T15:58:28.431Z,30.11
2022-08-06T16:01:04.083Z,29.92
2022-08-06T16:03:56.399Z,30.35
2022-08-06T16:06:23.713Z,30.25
2022-08-06T16:08:54.912Z,30.26
2022-08-06T16:11:48.263Z,30.13
2022-08-06T16:14:19.556Z,30.31
2022-08-06T16:16:48.247Z,30.30
2022-08-06T16:19:21.350Z,30.11
2022-08-06T16:21:50.261Z,30.24
2022-08-06T16:24:19.279Z,30.06
2022-08-06T16:26:57.149Z,30.13
2022-08-06T16:29:26.687Z,30.13
2022-08-06T16:31:55.737Z,30.16
2022-08-06T16:34:30.013Z,30.50
2022-08-06T16:37:01.041Z,30.53
2022-08-06T16:39:36.295Z,30.58
2022-08-06T16:42:07.841Z,30.30
2022-08-06T16:44:56.683Z,30.66
2022-08-06T16:50:18.875Z,30.64
2022-08-06T16:54:14.601Z,30.71
2022-08-06T16:55:45.228Z,31.02
2022-08-06T17:02:20.876Z,31.16
2022-08-06T17:04:00.059Z,31.52
2022-08-06T17:06:31.412Z,31.36
2022-08-06T17:09:16.355Z,31.52
2022-08-06T17:11:57.496Z,31.62
2022-08-06T17:14:28.213Z,31.54
2022-08-06T17:17:00.339Z,31.73
2022-08-06T17:19:30.816Z,31.88
2022-08-06T17:22:00.637Z,32.04
2022-08-06T17:27:44.777Z,32.31
2022-08-06T17:30:12.225Z,32.61
2022-08-06T17:32:46.472Z,32.50
2022-08-06T17:35:16.549Z,32.65
2022-08-06T17:37:49.175Z,32.77
2022-08-06T17:40:31.444Z,32.70
2022-08-06T17:43:12.971Z,32.88
2022-08-06T17:46:00.237Z,33.32
2022-08-06T17:48:32.572Z,33.47
2022-08-06T17:51:09.795Z,33.64
2022-08-06T17:53:52.022Z,33.94
2022-08-06T17:56:30.471Z,34.08
2022-08-06T17:59:16.537Z,34.45
2022-08-06T18:01:49.574Z,34.79
2022-08-06T18:04:30.772Z,34.95
2022-08-06T18:07:12.241Z,35.03
2022-08-06T18:10:10.858Z,35.53
2022-08-06T18:12:48.569Z,35.62
2022-08-06T18:15:22.769Z,35.99
2022-08-06T18:18:03.711Z,36.42
2022-08-06T18:20:39.408Z,36.40
2022-08-06T18:23:21.698Z,36.79
2022-08-06T18:25:57.328Z,37.12
2022-08-06T18:28:34.587Z,37.22
2022-08-06T18:31:09.646Z,37.64
2022-08-06T18:33:46.052Z,37.88
2022-08-06T18:36:16.669Z,37.93
2022-08-06T18:38:45.726Z,38.36
2022-08-06T18:41:16.775Z,38.51
2022-08-06T18:43:54.514Z,38.70
2022-08-06T18:46:55.464Z,38.95
2022-08-06T18:49:20.472Z,39.33
2022-08-06T18:51:49.362Z,39.43
2022-08-06T18:54:23.112Z,39.49
2022-08-06T18:56:53.159Z,39.65
2022-08-06T18:59:28.649Z,39.98
2022-08-06T19:01:59.193Z,40.17
2022-08-06T19:04:29.033Z,40.39
2022-08-06T19:07:01.029Z,40.54
2022-08-06T19:09:37.007Z,40.61
2022-08-06T19:12:13.852Z,40.83
2022-08-06T19:14:50.624Z,40.99
2022-08-06T19:18:10.530Z,41.25
2022-08-06T19:20:20.178Z,41.43
2022-08-06T19:22:53.390Z,41.57
2022-08-06T19:25:28.585Z,41.73
2022-08-06T19:28:35.800Z,41.96
2022-08-06T19:31:06.214Z,42.22
2022-08-06T19:33:35.140Z,42.25
2022-08-06T19:36:09.078Z,42.47
2022-08-06T19:38:44.324Z,42.68
2022-08-06T19:41:54.836Z,42.84
2022-08-06T19:44:26.816Z,43.06
2022-08-06T19:46:56.722Z,43.11
2022-08-06T19:49:28.159Z,43.33
2022-08-06T19:52:10.327Z,43.54
2022-08-06T19:54:41.957Z,43.62
2022-08-06T19:57:13.288Z,43.82
2022-08-06T20:00:54.766Z,44.00
2022-08-06T20:02:51.315Z,44.05
2022-08-06T20:06:17.733Z,44.28
2022-08-06T20:08:32.978Z,44.59
2022-08-06T20:11:09.540Z,44.66
2022-08-06T20:13:54.700Z,44.88
2022-08-06T20:16:23.353Z,45.08
2022-08-06T20:18:52.177Z,45.23
2022-08-06T20:21:42.744Z,45.27
2022-08-06T20:24:09.416Z,45.57
2022-08-06T20:26:38.179Z,45.68
2022-08-06T20:29:34.781Z,45.94
2022-08-06T20:32:16.857Z,46.06
2022-08-06T20:34:48.251Z,46.15
2022-08-06T20:37:17.383Z,46.29
2022-08-06T20:39:48.442Z,46.42
2022-08-06T20:42:18.799Z,46.49
2022-08-06T20:44:51.884Z,46.57
2022-08-06T20:47:46.481Z,46.74
2022-08-06T20:50:11.928Z,46.88
2022-08-06T20:52:40.728Z,46.95
2022-08-06T20:55:13.964Z,47.01
2022-08-06T20:57:48.543Z,47.15
2022-08-06T21:00:27.995Z,47.33
2022-08-06T21:03:28.626Z,47.63
2022-08-06T21:05:51.100Z,47.69
2022-08-06T21:08:27.111Z,47.82
2022-08-06T21:10:58.029Z,47.99
2022-08-06T21:13:29.730Z,48.04
2022-08-06T21:16:13.339Z,48.28
2022-08-06T21:18:44.380Z,48.28
2022-08-06T21:21:16.961Z,48.56
2022-08-06T21:23:56.449Z,48.61
2022-08-06T21:26:34.824Z,48.75
2022-08-06T21:30:07.300Z,48.90
2022-08-06T21:31:56.989Z,49.05
2022-08-06T21:34:27.709Z,49.20
2022-08-06T21:36:59.139Z,49.28
2022-08-06T21:39:30.153Z,49.35
2022-08-06T21:42:17.808Z,49.43
2022-08-06T21:44:49.524Z,49.60
2022-08-06T21:47:19.525Z,49.74
2022-08-06T21:49:59.361Z,49.84
2022-08-06T21:52:35.798Z,50.02
2022-08-06T21:55:11.361Z,50.02
2022-08-06T21:57:47.605Z,50.17
2022-08-06T22:00:36.848Z,50.33
2022-08-06T22:04:35.153Z,50.40
2022-08-06T22:06:22.025Z,50.50
2022-08-06T22:08:54.295Z,50.77
2022-08-06T22:12:38.506Z,50.65
2022-08-06T22:14:15.521Z,50.88
2022-08-06T22:16:48.807Z,51.07
2022-08-06T22:19:33.427Z,51.13
2022-08-06T22:22:07.359Z,51.27
2022-08-06T22:24:37.832Z,51.37
2022-08-06T22:27:07.939Z,51.33
2022-08-06T22:30:00.558Z,51.56
2022-08-06T22:32:36.278Z,51.79
2022-08-06T22:35:09.304Z,51.76
2022-08-06T22:38:17.073Z,51.92
2022-08-06T22:40:42.284Z,51.95
2022-08-06T22:43:18.205Z,52.12
2022-08-06T22:46:02.289Z,52.22
2022-08-06T22:48:36.488Z,52.22
2022-08-06T22:51:10.891Z,52.37
2022-08-06T22:54:29.133Z,52.57
2022-08-06T22:56:38.246Z,52.58
2022-08-06T22:59:31.454Z,52.61
2022-08-06T23:02:06.143Z,52.76
2022-08-06T23:04:41.523Z,52.99
2022-08-06T23:07:33.654Z,52.95
2022-08-06T23:10:06.742Z,53.15
2022-08-06T23:12:36.703Z,53.10
2022-08-06T23:15:29.899Z,53.24
2022-08-06T23:18:00.506Z,53.36
2022-08-06T23:20:32.746Z,53.35
2022-08-06T23:23:04.751Z,53.53
2022-08-06T23:26:00.166Z,53.64
2022-08-06T23:28:22.986Z,53.81
2022-08-06T23:30:52.342Z,53.91
2022-08-06T23:33:20.728Z,53.87
2022-08-06T23:35:50.733Z,53.93
2022-08-06T23:38:32.192Z,54.13
2022-08-06T23:41:05.151Z,54.22
2022-08-06T23:43:49.533Z,54.19
2022-08-06T23:46:19.706Z,54.32
2022-08-06T23:48:56.699Z,54.33
2022-08-06T23:52:01.840Z,54.33
2022-08-06T23:54:23.388Z,54.50
2022-08-06T23:56:57.837Z,54.69
2022-08-06T23:59:44.513Z,54.70
